createdAt,value
2023-04-13T06:06:08.765Z,8.38
2023-04-13T06:08:38.068Z,8.93
2023-04-13T06:11:06.976Z,9.23
2023-04-13T06:13:35.570Z,9.39
2023-04-13T06:16:03.986Z,9.49
2023-04-13T06:18:32.230Z,9.54
2023-04-13T06:21:00.526Z,9.51
2023-04-13T06:23:30.306Z,8.95
2023-04-13T06:26:05.575Z,9.28
2023-04-13T06:28:43.830Z,9.34
2023-04-13T06:31:18.290Z,9.24
2023-04-13T06:33:51.155Z,9.25
2023-04-13T06:36:25.709Z,9.22
2023-04-13T06:38:57.282Z,9.34
2023-04-13T06:41:27.272Z,9.24
2023-04-13T06:44:12.259Z,9.35
2023-04-13T06:46:51.809Z,9.29
2023-04-13T06:49:22.212Z,9.43
2023-04-13T06:51:52.216Z,9.43
2023-04-13T06:54:22.058Z,9.47
2023-04-13T06:56:57.565Z,9.31
2023-04-13T06:59:26.060Z,9.37
2023-04-13T07:01:54.612Z,9.49
2023-04-13T07:04:25.709Z,9.38
2023-04-13T07:06:59.473Z,9.50
2023-04-13T07:09:29.805Z,9.39
2023-04-13T07:11:58.872Z,9.67
2023-04-13T07:14:27.355Z,9.68
2023-04-13T07:16:55.622Z,9.60
2023-04-13T07:19:25.715Z,9.41
2023-04-13T07:21:54.198Z,9.51
2023-04-13T07:24:23.866Z,9.15
2023-04-13T07:26:53.826Z,9.73
2023-04-13T07:29:22.625Z,9.52
2023-04-13T07:32:00.675Z,9.63
2023-04-13T07:34:30.932Z,9.23
2023-04-13T07:36:59.411Z,9.40
2023-04-13T07:39:28.000Z,9.25
2023-04-13T07:41:58.633Z,9.33
2023-04-13T07:44:35.557Z,9.30
2023-04-13T07:47:04.365Z,9.36
2023-04-13T07:49:34.140Z,9.46
2023-04-13T07:52:02.421Z,9.50
2023-04-13T07:54:35.128Z,9.46
2023-04-13T07:57:05.708Z,9.29
2023-04-13T07:59:36.513Z,9.30
2023-04-13T08:02:05.771Z,9.67
2023-04-13T08:04:36.902Z,9.73
2023-04-13T08:07:07.366Z,9.74
2023-04-13T08:09:37.403Z,9.64
2023-04-13T08:12:08.327Z,9.93
2023-04-13T08:14:42.665Z,10.07
2023-04-13T08:17:12.481Z,10.03
2023-04-13T08:19:41.619Z,9.86
2023-04-13T08:22:14.848Z,9.72
2023-04-13T08:24:44.252Z,9.71
2023-04-13T08:27:14.097Z,10.02
2023-04-13T08:29:42.432Z,9.86
2023-04-13T08:32:10.987Z,10.09
2023-04-13T08:34:39.981Z,9.98
2023-04-13T08:37:08.385Z,9.93
2023-04-13T08:39:38.148Z,10.06
2023-04-13T08:42:08.160Z,9.93
2023-04-13T08:44:43.045Z,9.63
2023-04-13T08:47:12.015Z,10.03
2023-04-13T08:49:40.927Z,9.94
2023-04-13T08:52:11.587Z,9.65
2023-04-13T08:54:42.654Z,9.78
2023-04-13T08:57:19.444Z,9.79
2023-04-13T08:59:51.260Z,10.11
2023-04-13T09:02:24.646Z,10.30
2023-04-13T09:05:01.005Z,10.62
2023-04-13T09:07:34.855Z,10.73
2023-04-13T09:10:10.144Z,11.03
2023-04-13T09:12:42.317Z,10.63
2023-04-13T09:15:15.000Z,10.83
2023-04-13T09:17:57.308Z,10.68
2023-04-13T09:20:25.856Z,10.91
2023-04-13T09:22:54.477Z,10.82
2023-04-13T09:25:24.571Z,10.95
2023-04-13T09:30:40.428Z,10.64
2023-04-13T09:33:10.808Z,10.50
2023-04-13T09:35:39.708Z,9.93
2023-04-13T09:38:09.010Z,10.26
2023-04-13T09:40:39.155Z,10.14
2023-04-13T09:43:09.705Z,10.04
2023-04-13T09:45:39.198Z,10.01
2023-04-13T09:48:19.178Z,10.03
2023-04-13T09:50:47.813Z,9.97
2023-04-13T09:53:16.116Z,10.05
2023-04-13T09:55:47.637Z,10.14
2023-04-13T09:58:17.769Z,9.66
2023-04-13T10:00:47.548Z,9.91
2023-04-13T10:03:19.169Z,10.00
2023-04-13T10:08:27.364Z,9.74
2023-04-13T10:11:04.405Z,9.70
2023-04-13T10:13:38.434Z,9.73
2023-04-13T10:16:33.793Z,9.72
2023-04-13T10:19:06.685Z,9.75
2023-04-13T10:21:39.528Z,9.65
2023-04-13T10:24:12.211Z,9.91
2023-04-13T10:26:41.769Z,9.87
2023-04-13T10:29:11.718Z,9.78
2023-04-13T10:31:41.532Z,9.70
2023-04-13T10:34:11.356Z,9.78
2023-04-13T10:36:41.797Z,9.88
2023-04-13T10:39:10.674Z,9.83
2023-04-13T10:41:39.113Z,9.94
2023-04-13T10:44:08.698Z,10.14
2023-04-13T10:46:37.267Z,10.33
2023-04-13T10:49:06.825Z,10.61
2023-04-13T10:51:43.692Z,10.32
2023-04-13T10:54:14.965Z,9.72
2023-04-13T10:56:43.254Z,9.60
2023-04-13T10:59:12.117Z,9.58
2023-04-13T11:01:41.384Z,9.70
2023-04-13T11:04:14.029Z,9.18
2023-04-13T11:06:46.918Z,9.48
2023-04-13T11:09:17.248Z,9.67
2023-04-13T11:11:52.682Z,9.77
2023-04-13T11:14:24.283Z,10.01
2023-04-13T11:16:58.320Z,9.80
2023-04-13T11:19:27.273Z,9.73
2023-04-13T11:21:58.282Z,9.69
2023-04-13T11:24:33.889Z,9.69
2023-04-13T11:27:02.418Z,9.55
2023-04-13T11:29:30.730Z,9.69
2023-04-13T11:31:59.107Z,10.03
2023-04-13T11:34:28.842Z,10.26
2023-04-13T11:37:05.308Z,10.31
2023-04-13T11:39:38.809Z,10.43
2023-04-13T11:42:08.194Z,10.48
2023-04-13T11:44:36.966Z,10.50
2023-04-13T11:47:06.082Z,10.36
2023-04-13T11:49:34.623Z,9.95
2023-04-13T11:52:05.271Z,10.16
2023-04-13T11:54:33.651Z,10.45
2023-04-13T11:57:02.560Z,10.65
2023-04-13T11:59:30.861Z,10.62
2023-04-13T12:02:03.840Z,10.59
2023-04-13T12:04:50.080Z,10.65
2023-04-13T12:07:20.971Z,10.68
2023-04-13T12:15:12.694Z,10.99
2023-04-13T12:17:50.095Z,10.82
2023-04-13T12:20:26.363Z,10.43
2023-04-13T12:23:05.834Z,10.08
2023-04-13T12:25:36.928Z,10.38
2023-04-13T12:28:05.776Z,10.43
2023-04-13T12:30:34.239Z,10.04
2023-04-13T12:33:02.618Z,9.80
2023-04-13T12:35:31.132Z,10.54
2023-04-13T12:38:00.784Z,10.17
2023-04-13T12:40:29.187Z,9.97
2023-04-13T12:42:57.432Z,10.20
2023-04-13T12:45:28.522Z,10.44
2023-04-13T12:47:56.773Z,10.75
2023-04-13T12:50:25.126Z,10.81
2023-04-13T12:52:53.394Z,10.94
2023-04-13T12:55:24.024Z,10.54
2023-04-13T12:57:52.328Z,10.13
2023-04-13T13:00:22.676Z,10.02
2023-04-13T13:02:56.652Z,10.15
2023-04-13T13:05:35.103Z,10.28
2023-04-13T13:08:03.510Z,10.35
2023-04-13T13:10:33.836Z,10.32
2023-04-13T13:13:04.037Z,10.48
2023-04-13T13:15:32.914Z,10.40
2023-04-13T13:18:04.084Z,10.50
2023-04-13T13:20:32.507Z,10.53
2023-04-13T13:23:00.703Z,10.53
2023-04-13T13:25:28.968Z,10.55
2023-04-13T13:28:13.410Z,10.52
2023-04-13T13:30:44.271Z,10.13
2023-04-13T13:33:12.818Z,9.98
2023-04-13T13:35:41.109Z,9.76
2023-04-13T13:38:09.358Z,9.68
2023-04-13T13:40:38.780Z,9.69
2023-04-13T13:43:08.879Z,9.57
2023-04-13T13:45:37.440Z,9.63
2023-04-13T13:48:07.025Z,9.60
2023-04-13T13:50:46.979Z,9.41
2023-04-13T13:53:15.925Z,9.44
2023-04-13T13:55:44.202Z,9.54
2023-04-13T13:58:13.892Z,9.48
2023-04-13T14:00:42.742Z,9.46
2023-04-13T14:03:11.976Z,9.51
2023-04-13T14:05:53.978Z,9.59
2023-04-13T14:08:22.380Z,9.71
2023-04-13T14:10:53.071Z,9.68
2023-04-13T14:13:23.344Z,9.59
2023-04-13T14:16:03.724Z,9.59
2023-04-13T14:18:33.981Z,9.77
2023-04-13T14:21:05.801Z,9.87
2023-04-13T14:23:37.565Z,9.97
2023-04-13T14:26:07.537Z,10.11
2023-04-13T14:28:39.418Z,10.18
2023-04-13T14:31:09.819Z,10.17
2023-04-13T14:33:40.707Z,9.96
2023-04-13T14:36:11.099Z,9.88
2023-04-13T14:38:39.314Z,9.87
2023-04-13T14:41:07.960Z,9.81
2023-04-13T14:43:40.331Z,10.12
2023-04-13T14:46:11.362Z,10.20
2023-04-13T14:48:40.126Z,10.26
2023-04-13T14:51:08.901Z,10.21
2023-04-13T14:53:37.233Z,10.23
2023-04-13T14:56:05.820Z,10.30
2023-04-13T14:58:34.137Z,10.23
2023-04-13T15:01:04.892Z,10.28
2023-04-13T15:03:33.778Z,10.20
2023-04-13T15:06:03.813Z,10.09
2023-04-13T15:08:34.067Z,9.87
2023-04-13T15:11:02.407Z,9.94
2023-04-13T15:13:30.686Z,9.94
2023-04-13T15:15:59.560Z,9.63
2023-04-13T15:18:32.796Z,9.75
2023-04-13T15:21:05.856Z,9.35
2023-04-13T15:23:35.351Z,9.38
2023-04-13T15:26:06.167Z,9.33
2023-04-13T15:28:34.618Z,9.34
2023-04-13T15:31:04.232Z,9.35
2023-04-13T15:33:35.058Z,9.18
2023-04-13T15:36:03.780Z,9.11
2023-04-13T15:38:31.983Z,9.13
2023-04-13T15:41:01.612Z,9.21
2023-04-13T15:43:32.818Z,9.21
2023-04-13T15:46:02.948Z,9.20
2023-04-13T15:48:31.714Z,9.07
2023-04-13T15:51:04.573Z,9.06
2023-04-13T15:53:32.945Z,9.07
2023-04-13T15:56:01.837Z,9.20
2023-04-13T15:58:33.333Z,8.85
2023-04-13T16:01:03.581Z,8.91
2023-04-13T16:03:32.529Z,8.93
2023-04-13T16:06:02.666Z,8.88
2023-04-13T16:08:31.393Z,9.01
2023-04-13T16:11:01.413Z,9.10
2023-04-13T16:13:47.355Z,8.92
2023-04-13T16:16:17.823Z,8.90
2023-04-13T16:18:46.296Z,8.85
2023-04-13T16:21:19.678Z,8.85
2023-04-13T16:23:52.859Z,8.90
2023-04-13T16:26:25.598Z,8.86
2023-04-13T16:28:55.352Z,8.83
2023-04-13T16:31:26.725Z,8.83
2023-04-13T16:33:57.900Z,8.86
2023-04-13T16:36:37.372Z,8.94
2023-04-13T16:39:16.221Z,8.90
2023-04-13T16:41:44.855Z,8.98
2023-04-13T16:44:41.181Z,9.05
2023-04-13T16:47:12.571Z,9.10
2023-04-13T16:50:01.358Z,8.92
2023-04-13T16:52:31.387Z,8.90
2023-04-13T16:55:00.032Z,8.97
2023-04-13T16:57:29.631Z,8.99
2023-04-13T17:00:06.959Z,8.89
2023-04-13T17:02:38.478Z,9.00
2023-04-13T17:05:09.315Z,8.89
2023-04-13T17:07:42.210Z,8.84
2023-04-13T17:10:13.028Z,8.86
2023-04-13T17:12:41.912Z,8.79
2023-04-13T17:15:12.350Z,8.77
2023-04-13T17:17:41.379Z,8.62
2023-04-13T17:20:16.782Z,8.56
2023-04-13T17:22:48.942Z,8.61
2023-04-13T17:25:20.216Z,8.40
2023-04-13T17:27:50.435Z,8.68
2023-04-13T17:30:22.844Z,8.69
2023-04-13T17:32:51.653Z,8.57
2023-04-13T17:35:22.069Z,8.48
2023-04-13T17:37:54.559Z,8.58
2023-04-13T17:40:25.038Z,8.56
2023-04-13T17:42:54.121Z,8.51
2023-04-13T17:45:22.606Z,8.38
2023-04-13T17:47:51.736Z,8.58
2023-04-13T17:50:20.566Z,8.55
2023-04-13T17:52:49.364Z,8.57
2023-04-13T17:55:25.184Z,8.47
2023-04-13T17:57:53.901Z,8.35
2023-04-13T18:00:22.726Z,8.31
2023-04-13T18:02:54.836Z,8.33
2023-04-13T18:05:25.761Z,8.30
2023-04-13T18:07:59.406Z,8.22
2023-04-13T18:10:31.082Z,8.12
2023-04-13T18:13:01.503Z,8.15
2023-04-13T18:15:30.464Z,8.14
2023-04-13T18:18:04.894Z,8.13
2023-04-13T18:20:40.529Z,8.08
2023-04-13T18:23:15.174Z,8.22
2023-04-13T18:25:45.561Z,8.23
2023-04-13T18:28:21.287Z,8.27
2023-04-13T18:30:53.330Z,8.35
2023-04-13T18:33:22.938Z,8.06
2023-04-13T18:36:02.640Z,8.17
2023-04-13T18:38:34.899Z,8.31
2023-04-13T18:41:08.898Z,8.37
2023-04-13T18:43:38.408Z,8.35
2023-04-13T18:46:12.044Z,8.24
2023-04-13T18:48:44.231Z,8.19
2023-04-13T18:51:23.595Z,8.19
2023-04-13T18:53:54.432Z,8.26
2023-04-13T18:56:28.052Z,8.22
2023-04-13T18:58:57.161Z,8.20
2023-04-13T19:01:27.052Z,8.34
2023-04-13T19:03:56.835Z,8.32
2023-04-13T19:06:26.427Z,8.28
2023-04-13T19:08:56.649Z,8.30
2023-04-13T19:11:27.948Z,8.25
2023-04-13T19:13:58.131Z,8.32
2023-04-13T19:16:29.504Z,8.20
2023-04-13T19:19:00.502Z,8.34
2023-04-13T19:21:29.765Z,8.37
2023-04-13T19:23:59.780Z,8.45
2023-04-13T19:26:31.310Z,8.35
2023-04-13T19:29:01.633Z,8.33
2023-04-13T19:31:34.572Z,8.26
2023-04-13T19:34:05.512Z,8.36
2023-04-13T19:36:36.083Z,8.26
2023-04-13T19:39:06.345Z,8.27
2023-04-13T19:41:39.270Z,8.31
2023-04-13T19:44:09.585Z,8.32
2023-04-13T19:46:39.757Z,8.36
2023-04-13T19:49:09.122Z,8.41
2023-04-13T19:51:38.260Z,8.43
2023-04-13T19:54:07.484Z,8.48
2023-04-13T19:56:39.436Z,8.36
2023-04-13T19:59:10.107Z,8.32
2023-04-13T20:01:41.236Z,8.32
2023-04-13T20:04:13.686Z,8.30
2023-04-13T20:06:44.310Z,8.31
2023-04-13T20:09:14.996Z,8.27
2023-04-13T20:11:48.293Z,8.28
2023-04-13T20:14:21.463Z,8.24
2023-04-13T20:16:55.709Z,8.22
2023-04-13T20:19:37.358Z,8.15
2023-04-13T20:22:21.600Z,8.21
2023-04-13T20:25:06.914Z,8.18
2023-04-13T20:27:42.988Z,8.19
2023-04-13T20:30:18.532Z,8.13
2023-04-13T20:32:50.409Z,8.09
2023-04-13T20:35:21.210Z,8.12
2023-04-13T20:41:08.357Z,7.96
2023-04-13T20:43:41.467Z,7.89
2023-04-13T20:46:11.011Z,7.86
2023-04-13T20:51:13.468Z,8.09
2023-04-13T20:53:41.806Z,7.37
2023-04-13T20:56:10.038Z,7.60
2023-04-13T20:58:43.713Z,8.03
2023-04-13T21:01:12.154Z,7.83
2023-04-13T21:03:41.096Z,7.82
2023-04-13T21:06:09.706Z,7.65
2023-04-13T21:08:38.332Z,7.47
2023-04-13T21:11:07.280Z,7.03
2023-04-13T21:13:35.837Z,7.01
2023-04-13T21:16:07.083Z,6.97
2023-04-13T21:18:35.460Z,6.70
2023-04-13T21:21:03.770Z,7.03
2023-04-13T21:23:31.954Z,6.64
2023-04-13T21:26:00.258Z,6.76
2023-04-13T21:28:28.525Z,6.67
2023-04-13T21:30:56.760Z,6.56
2023-04-13T21:33:26.705Z,6.55
2023-04-13T21:35:54.998Z,6.49
2023-04-13T21:38:23.484Z,6.38
2023-04-13T21:40:51.701Z,5.98
2023-04-13T21:43:20.184Z,5.84
2023-04-13T21:45:48.569Z,6.25
2023-04-13T21:48:17.245Z,6.47
2023-04-13T21:50:47.747Z,6.40
2023-04-13T21:53:16.111Z,6.43
2023-04-13T21:55:44.429Z,6.26
2023-04-13T21:58:12.964Z,6.62
2023-04-13T22:00:43.382Z,6.29
2023-04-13T22:03:13.334Z,6.19
2023-04-13T22:05:42.952Z,6.24
2023-04-13T22:08:12.739Z,6.10
2023-04-13T22:10:41.194Z,5.98
2023-04-13T22:13:09.545Z,5.97
2023-04-13T22:15:38.003Z,5.84
2023-04-13T22:18:06.721Z,6.01
2023-04-13T22:20:34.989Z,5.83
2023-04-13T22:23:03.284Z,5.69
2023-04-13T22:25:33.023Z,5.98
2023-04-13T22:28:01.338Z,5.83
2023-04-13T22:30:29.971Z,6.01
2023-04-13T22:32:58.360Z,5.73
2023-04-13T22:35:27.419Z,5.55
2023-04-13T22:37:56.212Z,5.70
2023-04-13T22:40:24.775Z,5.47
2023-04-13T22:42:55.965Z,5.47
2023-04-13T22:45:24.371Z,5.55
2023-04-13T22:47:54.597Z,5.80
2023-04-13T22:50:22.980Z,5.60
2023-04-13T22:52:53.331Z,5.65
2023-04-13T22:55:21.750Z,5.72
2023-04-13T22:57:50.056Z,5.31
2023-04-13T23:00:20.869Z,5.42
2023-04-13T23:02:50.725Z,5.23
2023-04-13T23:05:21.580Z,5.24
2023-04-13T23:07:50.537Z,5.32
2023-04-13T23:10:19.360Z,5.34
2023-04-13T23:12:47.840Z,5.34
2023-04-13T23:15:16.383Z,5.36
2023-04-13T23:17:46.318Z,5.01
2023-04-13T23:20:15.490Z,5.36
2023-04-13T23:22:45.717Z,5.22
2023-04-13T23:25:14.060Z,5.12
2023-04-13T23:27:42.579Z,4.97
2023-04-13T23:30:11.729Z,5.09
2023-04-13T23:32:40.054Z,4.96
2023-04-13T23:35:10.729Z,5.02
2023-04-13T23:37:40.512Z,5.08
2023-04-13T23:40:10.939Z,5.41
2023-04-13T23:42:39.142Z,5.08
2023-04-13T23:45:08.938Z,4.84
2023-04-13T23:47:38.040Z,5.20
2023-04-13T23:50:07.754Z,4.96
2023-04-13T23:52:37.379Z,5.17
2023-04-13T23:55:06.284Z,5.42
2023-04-13T23:57:35.243Z,5.24
